Time;durP1;ratioP1;P1;durP2;ratioP2;P2;SDS_P1;SDS_P2;PMS_P1;PMS_P2;Temp;Humidity;BMP_temperature;BMP_pressure;BME280_temperature;BME280_humidity;BME280_pressure;Samples;Min_cycle;Max_cycle;Signal;HPM_P1;HPM_P2
2020/12/31 00:00:19;;;;;;;4.00;3.70;;;6.70;72.30;;;;;;4898638;29;20455;-77
2020/12/31 00:02:46;;;;;;;4.03;3.73;;;6.70;72.20;;;;;;4900544;29;20466;-78
2020/12/31 00:05:14;;;;;;;4.20;3.90;;;6.70;72.20;;;;;;4899208;29;20547;-78
2020/12/31 00:07:40;;;;;;;3.73;3.23;;;6.70;72.20;;;;;;4899926;29;20819;-75
2020/12/31 00:10:07;;;;;;;4.40;4.00;;;6.70;72.30;;;;;;4900196;29;20501;-79
2020/12/31 00:12:33;;;;;;;4.07;3.77;;;6.70;72.30;;;;;;4899218;29;20497;-79
2020/12/31 00:15:00;;;;;;;4.40;3.80;;;6.70;72.30;;;;;;4898879;29;20567;-78
2020/12/31 00:17:27;;;;;;;4.53;4.13;;;6.70;72.10;;;;;;4899371;29;20943;-76
2020/12/31 00:19:54;;;;;;;4.70;4.30;;;6.80;72.30;;;;;;4900160;29;20476;-78
2020/12/31 00:22:22;;;;;;;5.43;4.60;;;6.80;72.20;;;;;;4899718;29;20956;-78
2020/12/31 00:24:49;;;;;;;5.60;5.00;;;6.80;72.10;;;;;;4899870;29;20471;-79
2020/12/31 00:27:15;;;;;;;6.10;4.90;;;6.80;72.00;;;;;;4898070;29;20452;-77
2020/12/31 00:29:42;;;;;;;5.13;4.37;;;6.80;72.00;;;;;;4899631;29;20461;-79
2020/12/31 00:32:09;;;;;;;4.07;3.67;;;6.80;72.00;;;;;;4899626;29;20578;-78
2020/12/31 00:34:35;;;;;;;4.60;4.30;;;6.80;72.00;;;;;;4899317;29;20463;-78
2020/12/31 00:37:02;;;;;;;4.33;3.97;;;6.80;72.00;;;;;;4899199;29;20958;-78
2020/12/31 00:39:31;;;;;;;4.10;3.70;;;6.80;72.00;;;;;;4899505;29;20461;-77
2020/12/31 00:41:57;;;;;;;4.60;4.00;;;6.90;72.10;;;;;;4899461;29;20970;-78
2020/12/31 00:44:24;;;;;;;5.00;4.17;;;6.90;72.00;;;;;;4899416;29;20468;-78
2020/12/31 00:46:50;;;;;;;5.27;4.77;;;7.00;71.80;;;;;;4898480;29;20502;-78
2020/12/31 00:49:17;;;;;;;5.47;4.90;;;7.00;71.40;;;;;;4899658;29;20489;-78
2020/12/31 00:51:43;;;;;;;5.40;4.90;;;6.90;71.30;;;;;;4899039;29;20507;-77
2020/12/31 00:54:10;;;;;;;6.57;3.90;;;6.90;71.50;;;;;;4896935;29;20473;-77
2020/12/31 00:56:38;;;;;;;4.13;3.80;;;6.90;71.20;;;;;;4898933;29;20474;-77
2020/12/31 00:59:08;;;;;;;4.43;4.03;;;6.80;70.80;;;;;;4898950;29;20467;-77
2020/12/31 01:01:35;;;;;;;4.20;3.80;;;6.80;70.90;;;;;;4899156;29;20619;-77
2020/12/31 01:04:01;;;;;;;3.40;3.10;;;6.70;71.00;;;;;;4899012;29;20451;-77
2020/12/31 01:06:36;;;;;;;3.53;2.97;;;6.60;71.00;;;;;;4899124;29;20804;-77
2020/12/31 01:09:08;;;;;;;3.43;3.23;;;6.60;71.00;;;;;;4899241;29;20490;-78
2020/12/31 01:11:37;;;;;;;4.30;3.93;;;6.50;70.90;;;;;;4898671;29;20555;-78
2020/12/31 01:14:03;;;;;;;4.37;2.93;;;6.50;70.90;;;;;;4898642;29;20469;-78
2020/12/31 01:16:30;;;;;;;3.23;2.93;;;6.50;71.70;;;;;;4898731;29;20945;-77
2020/12/31 01:18:57;;;;;;;3.90;3.63;;;6.50;70.80;;;;;;4898720;29;20951;-78
2020/12/31 01:21:23;;;;;;;4.57;4.13;;;6.40;70.90;;;;;;4897339;29;20477;-78
2020/12/31 01:23:50;;;;;;;3.60;3.30;;;6.40;71.00;;;;;;4898781;29;20527;-78
2020/12/31 01:26:30;;;;;;;3.67;3.37;;;6.40;70.90;;;;;;4897921;29;20463;-78
2020/12/31 01:28:58;;;;;;;3.77;3.40;;;6.30;71.10;;;;;;4898251;29;20462;-78
2020/12/31 01:31:25;;;;;;;3.80;3.37;;;6.20;71.10;;;;;;4898640;29;20859;-77
2020/12/31 01:33:51;;;;;;;5.30;3.43;;;6.10;71.20;;;;;;4898589;29;20464;-78
2020/12/31 01:36:18;;;;;;;3.63;3.23;;;6.10;71.30;;;;;;4898456;29;20463;-76
2020/12/31 01:38:45;;;;;;;2.97;2.77;;;6.00;71.30;;;;;;4898431;29;20845;-76
2020/12/31 01:41:12;;;;;;;3.60;3.30;;;6.00;71.40;;;;;;4898739;29;20465;-76
2020/12/31 01:43:39;;;;;;;4.73;3.67;;;6.00;71.50;;;;;;4898170;29;20458;-76
2020/12/31 01:46:11;;;;;;;3.07;2.87;;;6.00;71.60;;;;;;4896357;29;20516;-76
2020/12/31 01:48:40;;;;;;;3.20;3.00;;;6.00;71.70;;;;;;4896978;29;21010;-76
2020/12/31 01:51:06;;;;;;;4.47;3.77;;;6.00;71.70;;;;;;4898383;29;20494;-76
2020/12/31 01:53:33;;;;;;;3.93;3.23;;;6.10;71.80;;;;;;4897307;29;20561;-76
2020/12/31 01:56:03;;;;;;;4.40;3.80;;;6.10;71.50;;;;;;4898241;29;20968;-76
2020/12/31 01:58:30;;;;;;;3.87;3.00;;;6.20;71.30;;;;;;4898051;29;20452;-76
2020/12/31 02:00:57;;;;;;;3.57;3.30;;;6.20;71.00;;;;;;4898452;29;20467;-77
2020/12/31 02:03:25;;;;;;;3.47;3.17;;;6.20;71.00;;;;;;4898005;29;20557;-77
2020/12/31 02:05:51;;;;;;;4.00;3.70;;;6.20;71.00;;;;;;4897773;29;20467;-77
2020/12/31 02:08:18;;;;;;;3.47;2.83;;;6.20;71.10;;;;;;4897786;29;20475;-76
2020/12/31 02:10:45;;;;;;;4.00;3.40;;;6.20;71.00;;;;;;4879408;29;21125;-76
2020/12/31 02:13:11;;;;;;;4.23;3.83;;;6.20;71.00;;;;;;4877840;29;20502;-76
2020/12/31 02:15:38;;;;;;;4.03;3.47;;;6.20;71.00;;;;;;4896280;29;20986;-76
2020/12/31 02:18:04;;;;;;;3.70;3.50;;;6.20;70.90;;;;;;4897661;29;20471;-76
2020/12/31 02:20:32;;;;;;;3.80;3.03;;;6.20;70.90;;;;;;4897805;29;20829;-77
2020/12/31 02:22:59;;;;;;;4.23;3.83;;;6.20;70.80;;;;;;4897584;29;20887;-77
2020/12/31 02:25:26;;;;;;;3.10;2.80;;;6.10;70.70;;;;;;4897897;29;20811;-77
2020/12/31 02:27:52;;;;;;;3.80;3.50;;;6.10;70.80;;;;;;4897154;29;20448;-76
2020/12/31 02:30:19;;;;;;;3.60;3.30;;;6.00;70.70;;;;;;4897725;29;20854;-76
2020/12/31 02:32:45;;;;;;;3.60;3.23;;;6.00;70.50;;;;;;4897707;29;20502;-76
2020/12/31 02:35:12;;;;;;;4.23;3.83;;;5.90;70.40;;;;;;4896756;29;20949;-77
2020/12/31 02:37:38;;;;;;;3.90;3.60;;;5.90;70.60;;;;;;4896716;29;20463;-78
2020/12/31 02:40:06;;;;;;;3.63;3.37;;;5.80;70.70;;;;;;4895983;29;20478;-77
2020/12/31 02:42:32;;;;;;;4.43;3.70;;;5.80;70.80;;;;;;4897311;29;20978;-76
2020/12/31 02:44:59;;;;;;;4.60;4.20;;;5.80;70.80;;;;;;4897521;29;20865;-80
2020/12/31 02:47:30;;;;;;;4.30;4.00;;;5.70;70.90;;;;;;4897389;29;20452;-77
2020/12/31 02:49:57;;;;;;;4.83;4.33;;;5.70;71.10;;;;;;4897148;29;20459;-81
2020/12/31 02:52:23;;;;;;;4.67;3.70;;;5.70;71.20;;;;;;4896277;29;20542;-79
2020/12/31 02:54:50;;;;;;;5.03;3.83;;;5.70;71.10;;;;;;4896949;29;20872;-80
2020/12/31 02:57:17;;;;;;;4.73;4.33;;;5.70;71.00;;;;;;4897300;29;20462;-78
2020/12/31 02:59:44;;;;;;;4.63;4.23;;;5.70;71.00;;;;;;4897178;29;20960;-78
2020/12/31 03:02:10;;;;;;;5.33;4.10;;;5.70;71.00;;;;;;4897169;29;20810;-78
2020/12/31 03:04:37;;;;;;;4.30;3.97;;;5.70;71.00;;;;;;4897302;29;20839;-78
2020/12/31 03:07:03;;;;;;;4.07;3.53;;;5.70;70.90;;;;;;4895874;29;20459;-76
2020/12/31 03:09:30;;;;;;;5.10;4.03;;;5.70;70.90;;;;;;4897134;29;20948;-79
2020/12/31 03:11:56;;;;;;;5.57;4.17;;;5.70;70.90;;;;;;4896691;29;20831;-77
2020/12/31 03:14:24;;;;;;;4.43;4.00;;;5.70;70.80;;;;;;4897098;29;20487;-77
2020/12/31 03:16:50;;;;;;;4.63;4.23;;;5.70;70.80;;;;;;4896344;29;20844;-77
2020/12/31 03:19:17;;;;;;;6.30;4.20;;;5.60;70.60;;;;;;4897036;29;20469;-77
2020/12/31 03:21:43;;;;;;;4.90;4.13;;;5.50;70.40;;;;;;4897075;29;20464;-77
2020/12/31 03:24:10;;;;;;;4.00;3.70;;;5.50;70.60;;;;;;4896883;29;20830;-77
2020/12/31 03:26:37;;;;;;;3.50;3.20;;;5.50;70.70;;;;;;4897414;29;20474;-77
2020/12/31 03:29:03;;;;;;;4.87;4.07;;;5.50;70.80;;;;;;4896863;29;20994;-77
2020/12/31 03:31:31;;;;;;;4.27;3.87;;;5.50;70.70;;;;;;4896237;29;21665;-78
2020/12/31 03:33:57;;;;;;;4.63;4.20;;;5.40;70.50;;;;;;4896236;29;20450;-79
2020/12/31 03:36:24;;;;;;;5.60;4.80;;;5.40;70.60;;;;;;4897211;29;20531;-78
2020/12/31 03:38:50;;;;;;;4.07;3.67;;;5.40;70.50;;;;;;4897011;29;20474;-78
2020/12/31 03:41:17;;;;;;;7.33;4.40;;;5.30;70.40;;;;;;4897279;29;20470;-77
2020/12/31 03:43:45;;;;;;;4.30;4.00;;;5.30;70.60;;;;;;4896856;29;21029;-77
2020/12/31 03:46:11;;;;;;;5.37;4.83;;;5.20;70.50;;;;;;4896575;29;20541;-77
2020/12/31 03:48:39;;;;;;;4.70;4.30;;;5.20;70.50;;;;;;4897685;29;20471;-76
2020/12/31 03:51:05;;;;;;;5.23;4.00;;;5.20;70.60;;;;;;4900459;29;21013;-78
2020/12/31 03:53:32;;;;;;;5.13;3.70;;;5.20;70.80;;;;;;4899322;29;20492;-78
2020/12/31 03:55:58;;;;;;;4.07;3.67;;;5.20;70.70;;;;;;4900803;29;20992;-78
2020/12/31 03:58:25;;;;;;;4.70;4.10;;;5.20;71.20;;;;;;4898282;29;20471;-78
2020/12/31 04:00:51;;;;;;;3.87;3.57;;;5.20;70.30;;;;;;4900187;29;20460;-78
2020/12/31 04:03:18;;;;;;;6.40;4.53;;;5.20;70.50;;;;;;4900023;29;20535;-78
2020/12/31 04:05:45;;;;;;;4.83;4.20;;;5.10;70.40;;;;;;4900183;29;20498;-78
2020/12/31 04:08:12;;;;;;;3.30;3.00;;;5.10;70.50;;;;;;4900371;29;20468;-79
2020/12/31 04:10:38;;;;;;;5.50;3.53;;;5.10;70.40;;;;;;4900170;29;20972;-79
2020/12/31 04:13:05;;;;;;;4.20;3.77;;;5.10;70.30;;;;;;4900079;29;20867;-77
2020/12/31 04:15:32;;;;;;;4.40;4.00;;;5.10;70.40;;;;;;4899796;29;20460;-77
2020/12/31 04:17:58;;;;;;;4.53;4.23;;;5.10;70.40;;;;;;4885006;29;20817;-78
2020/12/31 04:20:25;;;;;;;4.20;3.90;;;5.10;70.50;;;;;;4900105;29;20525;-77
2020/12/31 04:22:52;;;;;;;4.27;3.63;;;5.10;70.60;;;;;;4899753;29;20461;-76
2020/12/31 04:25:19;;;;;;;4.77;4.30;;;5.00;70.50;;;;;;4898165;29;20500;-77
2020/12/31 04:27:45;;;;;;;4.43;4.03;;;5.00;70.40;;;;;;4899796;29;21006;-77
2020/12/31 04:30:12;;;;;;;4.50;4.10;;;5.00;70.40;;;;;;4900134;29;20508;-77
2020/12/31 04:32:38;;;;;;;5.53;5.00;;;5.00;70.40;;;;;;4899736;29;20869;-77
2020/12/31 04:35:05;;;;;;;5.50;4.37;;;5.00;70.30;;;;;;4899391;29;20487;-77
2020/12/31 04:37:31;;;;;;;4.60;4.20;;;5.00;70.30;;;;;;4899560;29;20552;-79
2020/12/31 04:39:59;;;;;;;5.33;4.40;;;5.00;70.20;;;;;;4899903;29;20454;-79
2020/12/31 04:42:33;;;;;;;4.80;4.30;;;5.00;70.10;;;;;;4899636;29;20915;-79
2020/12/31 04:45:02;;;;;;;4.43;4.03;;;5.00;70.20;;;;;;4899905;29;20448;-79
2020/12/31 04:47:35;;;;;;;4.70;4.30;;;4.90;70.10;;;;;;4899780;29;20829;-79
2020/12/31 04:50:03;;;;;;;3.50;3.20;;;4.90;70.00;;;;;;4899186;29;20566;-78
2020/12/31 04:52:33;;;;;;;4.60;3.97;;;4.90;70.00;;;;;;4897875;29;20564;-78
2020/12/31 04:55:01;;;;;;;4.50;4.10;;;4.80;69.80;;;;;;4898551;29;20556;-78
2020/12/31 04:57:28;;;;;;;5.43;4.40;;;4.80;69.90;;;;;;4899423;29;20526;-78
2020/12/31 04:59:55;;;;;;;4.93;3.87;;;4.80;70.00;;;;;;4897986;29;21044;-78
2020/12/31 05:02:21;;;;;;;5.00;3.50;;;4.80;70.00;;;;;;4899224;29;20460;-78
2020/12/31 05:04:48;;;;;;;4.70;4.30;;;4.90;70.20;;;;;;4898996;29;20953;-79
2020/12/31 05:07:15;;;;;;;5.40;4.57;;;4.90;70.10;;;;;;4899000;29;20806;-79
2020/12/31 05:09:41;;;;;;;5.20;4.43;;;4.90;69.90;;;;;;4898951;29;20456;-78
2020/12/31 05:12:09;;;;;;;5.63;5.03;;;4.90;69.70;;;;;;4899438;29;20986;-78
2020/12/31 05:14:37;;;;;;;5.03;4.50;;;4.80;69.70;;;;;;4898838;29;20892;-78
2020/12/31 05:17:14;;;;;;;4.57;4.17;;;4.80;69.70;;;;;;4896705;29;22143;-77
2020/12/31 05:19:41;;;;;;;5.40;4.90;;;4.70;69.70;;;;;;4894797;29;20496;-77
2020/12/31 05:22:16;;;;;;;5.40;4.87;;;4.70;69.80;;;;;;4897969;29;20595;-77
2020/12/31 05:24:43;;;;;;;4.07;3.63;;;4.70;69.90;;;;;;4897949;29;20467;-77
2020/12/31 05:27:19;;;;;;;4.07;3.67;;;4.70;70.00;;;;;;4897960;29;20477;-78
2020/12/31 05:30:00;;;;;;;4.80;3.73;;;4.70;70.00;;;;;;4898535;29;20452;-77
2020/12/31 05:32:29;;;;;;;6.13;4.40;;;4.70;69.90;;;;;;4897967;29;20485;-78
2020/12/31 05:34:56;;;;;;;4.60;4.00;;;4.70;69.70;;;;;;4897090;29;20824;-78
2020/12/31 05:37:25;;;;;;;5.80;4.60;;;4.70;69.90;;;;;;4898481;29;20461;-76
2020/12/31 05:40:04;;;;;;;3.53;3.23;;;4.70;69.80;;;;;;4897717;29;20526;-78
2020/12/31 05:42:34;;;;;;;4.80;4.17;;;4.70;69.70;;;;;;4898371;29;20457;-77
2020/12/31 05:45:06;;;;;;;4.03;3.50;;;4.70;69.80;;;;;;4896101;29;20463;-77
2020/12/31 05:47:35;;;;;;;4.07;3.70;;;4.70;69.40;;;;;;4898092;29;20456;-77
2020/12/31 05:50:01;;;;;;;5.03;3.80;;;4.70;69.30;;;;;;4897791;29;20464;-76
2020/12/31 05:52:35;;;;;;;4.47;4.07;;;4.60;69.20;;;;;;4897510;29;20500;-78
2020/12/31 05:55:04;;;;;;;3.70;3.40;;;4.60;69.30;;;;;;4897533;29;20452;-76
2020/12/31 05:57:42;;;;;;;6.43;3.43;;;4.60;69.30;;;;;;4898766;29;20472;-78
2020/12/31 06:00:11;;;;;;;3.33;2.80;;;4.60;69.40;;;;;;4897617;29;20536;-76
2020/12/31 06:02:43;;;;;;;3.67;3.00;;;4.60;69.40;;;;;;4897442;29;20461;-77
2020/12/31 06:05:13;;;;;;;7.90;3.70;;;4.70;69.10;;;;;;4898097;29;20842;-77
2020/12/31 06:07:43;;;;;;;3.40;3.10;;;4.70;69.10;;;;;;4896980;29;20482;-77
2020/12/31 06:10:12;;;;;;;7.80;3.83;;;4.70;69.10;;;;;;4897987;29;20449;-77
2020/12/31 06:12:53;;;;;;;4.13;3.13;;;4.70;69.30;;;;;;4896231;29;20500;-77
2020/12/31 06:15:22;;;;;;;3.43;3.13;;;4.70;69.20;;;;;;4897801;29;20516;-75
2020/12/31 06:17:51;;;;;;;3.97;3.40;;;4.60;69.00;;;;;;4896684;29;20459;-77
2020/12/31 06:20:19;;;;;;;3.80;3.50;;;4.60;69.00;;;;;;4897554;29;20462;-77
2020/12/31 06:23:09;;;;;;;5.90;4.03;;;4.70;69.10;;;;;;4897070;29;20469;-76
2020/12/31 06:25:38;;;;;;;4.33;3.17;;;4.70;68.90;;;;;;4897297;29;20466;-77
2020/12/31 06:28:16;;;;;;;4.70;4.20;;;4.70;69.00;;;;;;4896840;29;20451;-77
2020/12/31 06:30:45;;;;;;;6.30;3.60;;;4.70;68.80;;;;;;4897249;29;20556;-77
2020/12/31 06:33:15;;;;;;;4.33;3.93;;;4.70;68.90;;;;;;4896542;29;21001;-76
2020/12/31 06:35:42;;;;;;;3.67;3.37;;;4.80;69.00;;;;;;4896721;29;20504;-77
2020/12/31 06:38:09;;;;;;;4.70;3.67;;;4.80;68.90;;;;;;4894948;29;20460;-77
2020/12/31 06:40:36;;;;;;;4.37;3.70;;;4.80;68.80;;;;;;4897450;29;20468;-77
2020/12/31 06:43:09;;;;;;;4.00;3.17;;;4.80;68.60;;;;;;4896285;29;20465;-77
2020/12/31 06:45:41;;;;;;;4.20;3.80;;;4.80;68.50;;;;;;4896726;29;20552;-76
2020/12/31 06:48:36;;;;;;;3.40;3.20;;;4.80;68.60;;;;;;4896828;29;20473;-76
2020/12/31 06:51:05;;;;;;;3.90;3.20;;;4.90;68.50;;;;;;4888479;29;20501;-77
2020/12/31 06:53:33;;;;;;;3.30;3.00;;;4.90;68.30;;;;;;4896303;29;20487;-76
2020/12/31 06:56:01;;;;;;;3.83;3.53;;;4.90;68.30;;;;;;4896327;29;20457;-77
2020/12/31 06:58:29;;;;;;;3.53;3.23;;;4.90;68.20;;;;;;4896533;29;20456;-77
2020/12/31 07:00:56;;;;;;;3.87;3.57;;;4.90;67.90;;;;;;4894707;29;20469;-75
2020/12/31 07:03:44;;;;;;;4.47;4.07;;;4.90;67.80;;;;;;4896826;29;20458;-77
2020/12/31 07:06:35;;;;;;;4.77;3.90;;;5.00;68.00;;;;;;4894840;29;20876;-77
2020/12/31 07:09:04;;;;;;;5.47;3.90;;;4.90;67.70;;;;;;4874244;29;20525;-76
2020/12/31 07:11:35;;;;;;;5.40;4.60;;;5.00;67.80;;;;;;4896878;29;20500;-77
2020/12/31 07:14:21;;;;;;;4.63;4.23;;;5.00;67.50;;;;;;4896644;29;20566;-78
2020/12/31 07:16:56;;;;;;;4.53;4.10;;;5.00;67.50;;;;;;4896657;29;20469;-77
2020/12/31 07:19:28;;;;;;;4.93;3.80;;;5.00;67.60;;;;;;4894868;29;20887;-77
2020/12/31 07:21:55;;;;;;;4.07;3.77;;;5.10;67.70;;;;;;4895757;29;20555;-78
2020/12/31 07:24:26;;;;;;;4.50;4.10;;;5.10;67.50;;;;;;4898344;29;20465;-78
2020/12/31 07:26:56;;;;;;;5.60;5.07;;;5.10;67.50;;;;;;4900884;29;20463;-77
2020/12/31 07:29:29;;;;;;;4.23;3.40;;;5.10;67.50;;;;;;4900394;29;20467;-77
2020/12/31 07:31:57;;;;;;;5.57;4.87;;;5.10;67.50;;;;;;4898654;29;20480;-77
2020/12/31 07:34:28;;;;;;;4.70;4.20;;;5.10;67.50;;;;;;4900768;29;20457;-77
2020/12/31 07:36:59;;;;;;;3.80;3.50;;;5.20;67.60;;;;;;4900278;29;20473;-78
2020/12/31 07:39:26;;;;;;;4.50;4.10;;;5.20;67.60;;;;;;4897218;29;20462;-77
2020/12/31 07:42:12;;;;;;;4.47;4.07;;;5.30;67.50;;;;;;4900166;29;20461;-78
2020/12/31 07:44:49;;;;;;;5.03;4.53;;;5.40;67.50;;;;;;4900287;29;20469;-77
2020/12/31 07:47:24;;;;;;;6.00;4.90;;;5.40;67.30;;;;;;4899979;29;20481;-77
2020/12/31 07:49:52;;;;;;;6.03;4.37;;;5.50;67.40;;;;;;4900196;29;20523;-77
2020/12/31 07:52:19;;;;;;;7.30;4.40;;;5.50;67.10;;;;;;4900283;29;20490;-77
2020/12/31 07:54:46;;;;;;;4.90;4.40;;;5.50;67.10;;;;;;4899901;29;20514;-77
2020/12/31 07:57:14;;;;;;;7.30;5.30;;;5.60;67.10;;;;;;4900318;29;20456;-77
2020/12/31 07:59:45;;;;;;;7.20;5.13;;;5.60;66.60;;;;;;4897982;29;20460;-76
2020/12/31 08:02:14;;;;;;;6.43;5.30;;;5.70;66.30;;;;;;4899937;29;20466;-77
2020/12/31 08:04:42;;;;;;;5.30;4.77;;;5.70;66.10;;;;;;4899041;29;20466;-77
2020/12/31 08:07:15;;;;;;;5.00;4.60;;;5.70;65.90;;;;;;4900091;29;20458;-77
2020/12/31 08:09:43;;;;;;;5.43;4.80;;;5.80;65.90;;;;;;4898950;29;20469;-76
2020/12/31 08:12:11;;;;;;;7.20;5.47;;;5.80;65.90;;;;;;4899910;29;20458;-76
2020/12/31 08:14:44;;;;;;;5.40;4.73;;;5.80;65.30;;;;;;4890510;29;20463;-76
2020/12/31 08:17:11;;;;;;;5.17;4.70;;;5.80;65.00;;;;;;4900083;29;20458;-76
2020/12/31 08:19:39;;;;;;;6.03;5.43;;;5.90;65.00;;;;;;4899810;29;20460;-77
2020/12/31 08:22:19;;;;;;;6.00;5.30;;;5.90;64.90;;;;;;4899706;29;20994;-78
2020/12/31 08:24:50;;;;;;;7.20;6.30;;;5.90;65.00;;;;;;4897964;29;21012;-78
2020/12/31 08:27:19;;;;;;;7.57;6.03;;;6.00;64.90;;;;;;4899351;29;20474;-75
2020/12/31 08:29:46;;;;;;;6.37;5.67;;;6.00;65.00;;;;;;4899909;29;20502;-76
2020/12/31 08:32:23;;;;;;;7.93;5.30;;;6.00;65.10;;;;;;4894235;29;20558;-76
2020/12/31 08:34:53;;;;;;;6.40;4.77;;;6.10;65.10;;;;;;4898891;29;20973;-77
2020/12/31 08:37:22;;;;;;;6.40;5.33;;;6.10;64.80;;;;;;4899156;29;20456;-78
2020/12/31 08:39:51;;;;;;;5.90;5.33;;;6.10;64.80;;;;;;4899610;29;20500;-77
2020/12/31 08:42:20;;;;;;;5.10;4.60;;;6.20;65.70;;;;;;4899625;29;20513;-78
2020/12/31 08:44:53;;;;;;;5.10;4.70;;;6.20;65.00;;;;;;4899594;29;20495;-80
2020/12/31 08:47:22;;;;;;;6.00;5.17;;;6.20;65.00;;;;;;4898928;29;20851;-78
2020/12/31 08:49:53;;;;;;;7.07;6.37;;;6.30;64.90;;;;;;4899444;29;20460;-76
2020/12/31 08:52:22;;;;;;;6.77;6.10;;;6.40;64.60;;;;;;4896995;29;20515;-78
2020/12/31 08:55:09;;;;;;;7.40;5.50;;;6.50;64.60;;;;;;4899114;29;20456;-76
2020/12/31 08:57:35;;;;;;;6.90;6.40;;;6.60;64.50;;;;;;4898735;29;20543;-77
2020/12/31 09:00:02;;;;;;;6.40;5.80;;;6.60;64.50;;;;;;4899161;29;21035;-78
2020/12/31 09:02:29;;;;;;;6.63;6.03;;;6.60;64.40;;;;;;4899075;29;20460;-77
2020/12/31 09:05:16;;;;;;;7.57;6.10;;;6.60;64.40;;;;;;4898764;29;20451;-79
2020/12/31 09:07:43;;;;;;;5.93;5.40;;;6.60;64.20;;;;;;4899259;29;20452;-79
2020/12/31 09:10:16;;;;;;;6.00;5.50;;;6.60;64.00;;;;;;4898224;29;20470;-78
2020/12/31 09:12:43;;;;;;;8.83;5.53;;;6.60;64.00;;;;;;4898716;29;20853;-77
2020/12/31 09:15:18;;;;;;;6.93;6.23;;;6.60;63.80;;;;;;4898148;29;20468;-77
2020/12/31 09:17:45;;;;;;;6.30;5.70;;;6.70;63.60;;;;;;4897029;29;20469;-77
2020/12/31 09:20:19;;;;;;;8.57;6.50;;;6.70;63.50;;;;;;4898607;29;20464;-75
2020/12/31 09:22:46;;;;;;;6.37;5.60;;;6.70;63.60;;;;;;4898097;29;20893;-79
2020/12/31 09:25:14;;;;;;;7.43;6.73;;;6.70;63.40;;;;;;4897050;29;20535;-79
2020/12/31 09:27:45;;;;;;;8.47;6.50;;;6.70;63.40;;;;;;4898504;29;20884;-76
2020/12/31 09:30:14;;;;;;;6.10;5.53;;;6.70;63.20;;;;;;4897854;29;20519;-80
2020/12/31 09:32:46;;;;;;;6.80;6.10;;;6.70;62.80;;;;;;4898257;29;20488;-78
2020/12/31 09:35:13;;;;;;;7.60;6.77;;;6.80;62.80;;;;;;4897152;29;20544;-79
2020/12/31 09:37:51;;;;;;;8.57;6.20;;;6.80;62.80;;;;;;4897572;29;20533;-77
2020/12/31 09:40:18;;;;;;;8.00;6.60;;;6.80;62.40;;;;;;4898113;29;20460;-77
2020/12/31 09:42:45;;;;;;;6.47;5.87;;;6.80;63.00;;;;;;4897897;29;20520;-79
2020/12/31 09:45:12;;;;;;;7.27;6.40;;;6.80;62.30;;;;;;4896485;29;20833;-77
2020/12/31 09:47:39;;;;;;;8.13;6.53;;;6.90;62.50;;;;;;4898159;29;20460;-77
2020/12/31 09:50:08;;;;;;;8.23;5.47;;;6.90;62.10;;;;;;4897596;29;20464;-78
2020/12/31 09:52:35;;;;;;;6.53;5.17;;;7.00;62.10;;;;;;4894562;29;20489;-78
2020/12/31 09:55:02;;;;;;;6.47;5.87;;;7.00;61.90;;;;;;4897193;29;20465;-79
2020/12/31 09:57:29;;;;;;;8.37;6.30;;;7.10;61.70;;;;;;4897458;29;20529;-79
2020/12/31 09:59:56;;;;;;;7.07;6.20;;;7.10;61.40;;;;;;4897740;29;20983;-80
2020/12/31 10:02:22;;;;;;;9.73;6.47;;;7.00;61.30;;;;;;4898154;29;20531;-78
2020/12/31 10:04:49;;;;;;;8.57;6.67;;;7.10;61.50;;;;;;4897423;29;20886;-78
2020/12/31 10:07:15;;;;;;;6.93;5.90;;;7.10;61.50;;;;;;4897623;29;20470;-78
2020/12/31 10:09:42;;;;;;;6.03;5.53;;;7.20;61.40;;;;;;4897133;29;20468;-78
2020/12/31 10:12:11;;;;;;;9.00;8.30;;;7.20;61.30;;;;;;4895359;29;20975;-79
2020/12/31 10:14:38;;;;;;;6.63;6.03;;;7.30;61.40;;;;;;4889836;29;20531;-78
2020/12/31 10:17:05;;;;;;;6.30;5.70;;;7.30;61.30;;;;;;4897560;29;20861;-78
2020/12/31 10:19:32;;;;;;;5.20;4.70;;;7.40;61.20;;;;;;4896871;29;20882;-80
2020/12/31 10:21:58;;;;;;;7.37;5.40;;;7.50;61.50;;;;;;4897340;29;20466;-79
2020/12/31 10:24:25;;;;;;;5.07;4.57;;;7.60;61.00;;;;;;4895561;29;20508;-80
2020/12/31 10:26:52;;;;;;;6.70;5.47;;;7.70;60.60;;;;;;4897417;29;20965;-79
2020/12/31 10:29:19;;;;;;;6.83;6.20;;;7.70;60.30;;;;;;4896889;29;20471;-79
2020/12/31 10:31:51;;;;;;;5.37;4.80;;;7.80;60.10;;;;;;4897044;29;20984;-80
2020/12/31 10:34:18;;;;;;;6.53;5.50;;;7.80;59.60;;;;;;4896376;29;20498;-80
2020/12/31 10:36:50;;;;;;;6.00;5.40;;;7.80;59.00;;;;;;4896250;29;20502;-80
2020/12/31 10:39:17;;;;;;;6.90;4.87;;;7.80;59.00;;;;;;4895614;29;20483;-80
2020/12/31 10:41:44;;;;;;;5.33;4.80;;;7.80;58.80;;;;;;4896831;29;20470;-80
2020/12/31 10:44:10;;;;;;;5.10;4.57;;;7.80;58.40;;;;;;4897502;29;20472;-80
2020/12/31 10:46:37;;;;;;;6.10;3.80;;;7.70;58.20;;;;;;4896837;29;20479;-80
2020/12/31 10:49:04;;;;;;;3.90;3.60;;;7.60;58.40;;;;;;4897441;29;20451;-80
2020/12/31 10:51:34;;;;;;;4.33;3.93;;;7.50;58.80;;;;;;4895517;29;20976;-79
2020/12/31 10:54:01;;;;;;;4.13;3.73;;;7.40;59.40;;;;;;4896731;29;20576;-80
2020/12/31 10:56:27;;;;;;;4.80;4.30;;;7.20;60.60;;;;;;4897132;29;20462;-80
2020/12/31 10:58:54;;;;;;;4.67;4.27;;;7.10;62.20;;;;;;4896732;29;20493;-79
2020/12/31 11:01:21;;;;;;;5.33;4.83;;;7.00;63.60;;;;;;4896241;29;20536;-78
2020/12/31 11:03:47;;;;;;;3.67;3.37;;;6.90;65.10;;;;;;4896878;29;20456;-79
2020/12/31 11:06:19;;;;;;;6.80;4.43;;;6.90;66.00;;;;;;4895933;29;20881;-78
2020/12/31 11:08:46;;;;;;;4.90;4.10;;;6.90;67.00;;;;;;4896899;29;20470;-78
2020/12/31 11:11:17;;;;;;;8.20;5.03;;;7.00;67.40;;;;;;4896854;29;20456;-79
2020/12/31 11:13:44;;;;;;;5.57;5.07;;;7.10;67.60;;;;;;4897234;29;20496;-79
2020/12/31 11:16:11;;;;;;;8.33;4.70;;;7.20;67.60;;;;;;4896918;29;21020;-78
2020/12/31 11:18:39;;;;;;;8.13;5.30;;;7.30;67.60;;;;;;4897126;29;20524;-77
2020/12/31 11:21:06;;;;;;;4.93;4.40;;;7.50;67.50;;;;;;4896968;29;20465;-78
2020/12/31 11:23:33;;;;;;;4.80;4.00;;;7.50;67.00;;;;;;4896834;29;20463;-80
2020/12/31 11:26:00;;;;;;;5.50;5.00;;;7.60;66.80;;;;;;4897147;29;20453;-80
2020/12/31 11:28:27;;;;;;;5.03;4.63;;;7.60;66.90;;;;;;4896844;29;20453;-78
2020/12/31 11:30:53;;;;;;;6.73;4.67;;;7.60;66.20;;;;;;4894260;29;20463;-78
2020/12/31 11:33:20;;;;;;;4.87;3.97;;;7.60;66.00;;;;;;4896687;29;20494;-77
2020/12/31 11:35:46;;;;;;;5.30;4.77;;;7.60;65.90;;;;;;4896760;29;20461;-79
2020/12/31 11:38:13;;;;;;;5.73;4.03;;;7.60;66.50;;;;;;4896750;29;20466;-80
2020/12/31 11:40:40;;;;;;;4.70;4.30;;;7.60;66.60;;;;;;4896113;29;20466;-78
2020/12/31 11:43:07;;;;;;;4.80;4.40;;;7.70;66.60;;;;;;4894598;29;20466;-79
2020/12/31 11:45:33;;;;;;;5.53;5.07;;;7.70;66.50;;;;;;4896249;29;20497;-79
2020/12/31 11:48:00;;;;;;;5.43;4.97;;;7.80;66.60;;;;;;4897024;29;20977;-79
2020/12/31 11:50:27;;;;;;;5.10;4.57;;;7.80;66.60;;;;;;4896879;29;20453;-79
2020/12/31 11:52:53;;;;;;;9.23;5.83;;;7.90;66.20;;;;;;4897035;29;20869;-79
2020/12/31 11:55:20;;;;;;;4.63;4.23;;;8.00;66.40;;;;;;4897187;29;20462;-80
2020/12/31 11:57:47;;;;;;;5.60;4.73;;;8.10;65.80;;;;;;4895620;29;20470;-79
2020/12/31 12:00:14;;;;;;;5.50;5.00;;;8.20;65.80;;;;;;4896912;29;20550;-79
2020/12/31 12:02:41;;;;;;;5.13;4.73;;;8.30;65.60;;;;;;4897008;29;20514;-79
2020/12/31 12:05:08;;;;;;;7.40;4.73;;;8.40;65.00;;;;;;4896999;29;20463;-79
2020/12/31 12:07:35;;;;;;;7.27;4.40;;;8.40;64.60;;;;;;4896847;29;20500;-78
2020/12/31 12:10:02;;;;;;;5.03;4.50;;;8.50;64.40;;;;;;4897816;29;20455;-78
2020/12/31 12:12:29;;;;;;;5.07;4.57;;;8.50;64.10;;;;;;4900144;29;20478;-78
2020/12/31 12:14:56;;;;;;;5.60;5.07;;;8.50;63.70;;;;;;4900921;29;20458;-79
2020/12/31 12:17:23;;;;;;;6.20;5.00;;;8.40;62.90;;;;;;4906871;29;20541;-80
2020/12/31 12:19:49;;;;;;;5.27;4.73;;;8.30;63.20;;;;;;4918915;29;20462;-78
2020/12/31 12:22:16;;;;;;;5.30;4.80;;;8.20;63.60;;;;;;4919024;29;20553;-78
2020/12/31 12:24:43;;;;;;;5.50;5.00;;;8.10;63.50;;;;;;4917293;29;20962;-78
2020/12/31 12:27:09;;;;;;;5.13;4.73;;;8.10;64.10;;;;;;4918813;29;20466;-78
2020/12/31 12:29:36;;;;;;;6.20;4.60;;;8.20;64.40;;;;;;4913611;29;20469;-78
2020/12/31 12:32:09;;;;;;;5.70;4.97;;;8.20;64.20;;;;;;4900251;29;20985;-78
2020/12/31 12:34:36;;;;;;;7.33;4.20;;;8.20;64.10;;;;;;4899845;29;20904;-78
2020/12/31 12:37:02;;;;;;;7.60;4.70;;;8.10;64.00;;;;;;4900021;29;20468;-78
2020/12/31 12:39:29;;;;;;;5.13;4.63;;;8.10;63.90;;;;;;4899621;29;20984;-78
2020/12/31 12:41:57;;;;;;;5.20;4.70;;;8.10;64.00;;;;;;4899580;29;20518;-78
2020/12/31 12:44:23;;;;;;;5.37;4.87;;;8.10;64.10;;;;;;4899790;29;20473;-78
2020/12/31 12:46:50;;;;;;;6.90;4.80;;;8.10;63.80;;;;;;4899709;29;20485;-78
2020/12/31 12:49:18;;;;;;;5.90;5.00;;;8.00;63.60;;;;;;4899038;29;20547;-78
2020/12/31 12:51:45;;;;;;;6.47;4.17;;;8.00;64.10;;;;;;4898702;29;20456;-78
2020/12/31 12:54:11;;;;;;;6.10;5.33;;;8.00;64.20;;;;;;4899474;29;20503;-78
2020/12/31 12:56:38;;;;;;;5.43;4.90;;;8.00;64.00;;;;;;4899356;29;20458;-78
2020/12/31 12:59:04;;;;;;;5.93;5.03;;;8.10;64.20;;;;;;4899490;29;20817;-78
2020/12/31 13:01:31;;;;;;;6.10;4.47;;;8.10;64.30;;;;;;4899577;29;20982;-78
2020/12/31 13:03:58;;;;;;;4.77;4.33;;;8.10;64.10;;;;;;4899267;29;20461;-78